Time;durP1;ratioP1;P1;durP2;ratioP2;P2;SDS_P1;SDS_P2;PMS_P1;PMS_P2;Temp;Humidity;BMP_temperature;BMP_pressure;BME280_temperature;BME280_humidity;BME280_pressure;Samples;Min_cycle;Max_cycle;Signal;HPM_P1;HPM_P2
2024/04/10 00:01:44;;;;;;;10.95;2.53;;;9.00;99.90;;;;;;5400290;26;20811;-79
2024/04/10 00:04:12;;;;;;;9.13;1.58;;;9.00;99.90;;;;;;5374196;26;20049;-78
2024/04/10 00:06:39;;;;;;;10.93;2.13;;;9.00;99.90;;;;;;5392094;26;20012;-79
2024/04/10 00:09:07;;;;;;;7.80;1.73;;;8.90;99.90;;;;;;5399043;26;20017;-80
2024/04/10 00:11:34;;;;;;;11.80;2.22;;;8.90;99.90;;;;;;5405955;26;20019;-79
2024/04/10 00:14:02;;;;;;;9.73;1.65;;;9.00;99.90;;;;;;5398378;26;20031;-78
2024/04/10 00:16:32;;;;;;;8.55;2.13;;;8.90;99.90;;;;;;5400187;26;20020;-78
2024/04/10 00:18:59;;;;;;;8.95;1.77;;;9.00;99.90;;;;;;5400863;26;20009;-79
2024/04/10 00:21:30;;;;;;;8.48;1.65;;;9.00;99.90;;;;;;5397487;26;19999;-81
2024/04/10 00:23:57;;;;;;;7.78;1.90;;;9.00;99.90;;;;;;5403639;26;20007;-79
2024/04/10 00:26:24;;;;;;;6.93;1.40;;;9.00;99.90;;;;;;5403286;26;19996;-79
2024/04/10 00:28:51;;;;;;;8.35;1.25;;;9.00;99.90;;;;;;5405929;26;20090;-78
2024/04/10 00:31:19;;;;;;;7.78;1.50;;;8.90;99.90;;;;;;5400361;26;20004;-79
2024/04/10 00:33:46;;;;;;;7.32;2.28;;;8.90;99.90;;;;;;5405255;26;20039;-79
2024/04/10 00:36:13;;;;;;;6.18;1.52;;;8.90;99.90;;;;;;5401419;26;20038;-79
2024/04/10 00:38:40;;;;;;;8.98;1.85;;;8.90;99.90;;;;;;5400793;26;20027;-78
2024/04/10 00:41:07;;;;;;;12.80;2.20;;;8.90;99.90;;;;;;5399138;26;20008;-79
2024/04/10 00:43:34;;;;;;;6.97;1.55;;;8.90;99.90;;;;;;5404650;26;20013;-78
2024/04/10 00:46:16;;;;;;;8.73;2.05;;;8.80;99.90;;;;;;5401050;26;20008;-78
2024/04/10 00:48:44;;;;;;;8.15;1.80;;;8.90;99.90;;;;;;5389961;26;20011;-78
2024/04/10 00:51:32;;;;;;;11.23;2.00;;;8.90;99.90;;;;;;5397864;26;20027;-78
2024/04/10 00:54:02;;;;;;;10.90;2.25;;;8.90;99.90;;;;;;5402766;26;20003;-78
2024/04/10 00:56:29;;;;;;;;;;;9.00;99.90;;;;;;5403069;26;20454;-78
2024/04/10 00:58:58;;;;;;;8.80;1.67;;;8.90;99.90;;;;;;5402227;26;20386;-79
2024/04/10 01:01:25;;;;;;;10.27;2.10;;;8.90;99.90;;;;;;5396140;26;20681;-79
2024/04/10 01:03:51;;;;;;;8.73;1.80;;;9.00;99.90;;;;;;5402615;26;20454;-79
2024/04/10 01:06:29;;;;;;;6.38;1.50;;;9.00;99.90;;;;;;5403707;26;20036;-79
2024/04/10 01:08:57;;;;;;;9.63;2.10;;;9.00;99.90;;;;;;5398147;26;20008;-79
2024/04/10 01:11:24;;;;;;;7.30;1.58;;;9.00;99.90;;;;;;5390730;26;20330;-80
2024/04/10 01:13:51;;;;;;;6.93;1.20;;;9.10;99.90;;;;;;5394486;26;20022;-78
2024/04/10 01:16:19;;;;;;;7.25;1.70;;;9.10;99.90;;;;;;5403355;26;20010;-79
2024/04/10 01:18:46;;;;;;;5.68;1.33;;;9.10;99.90;;;;;;5403770;26;20013;-81
2024/04/10 01:21:13;;;;;;;6.20;0.98;;;9.10;99.90;;;;;;5404348;26;20396;-79
2024/04/10 01:23:41;;;;;;;9.10;1.00;;;9.10;99.90;;;;;;5406322;26;20007;-79
2024/04/10 01:26:08;;;;;;;4.88;1.20;;;9.20;99.90;;;;;;5404494;26;20017;-81
2024/04/10 01:28:35;;;;;;;6.05;1.10;;;9.20;99.90;;;;;;5405321;26;20031;-79
2024/04/10 01:31:02;;;;;;;4.97;0.60;;;9.20;99.90;;;;;;5397275;26;22791;-79
2024/04/10 01:33:29;;;;;;;4.95;1.15;;;9.10;99.90;;;;;;5345527;26;19996;-79
2024/04/10 01:35:57;;;;;;;2.92;0.60;;;9.10;99.90;;;;;;5406607;26;20030;-80
2024/04/10 01:38:24;;;;;;;3.45;0.60;;;9.00;99.90;;;;;;5403861;26;20350;-79
2024/04/10 01:40:51;;;;;;;2.58;0.50;;;9.00;99.90;;;;;;5400300;26;20026;-79
2024/04/10 01:43:18;;;;;;;3.25;0.50;;;9.00;99.90;;;;;;5402101;26;20689;-79
2024/04/10 01:45:45;;;;;;;2.15;0.52;;;8.90;99.90;;;;;;5406688;26;20013;-79
2024/04/10 01:48:12;;;;;;;1.58;0.22;;;8.90;99.90;;;;;;5401732;26;19999;-79
2024/04/10 01:50:39;;;;;;;1.95;0.30;;;8.80;99.90;;;;;;5405598;26;20032;-79
2024/04/10 01:53:06;;;;;;;0.85;0.35;;;8.80;99.90;;;;;;5407334;26;20014;-80
2024/04/10 01:55:33;;;;;;;2.55;0.43;;;8.80;99.90;;;;;;5406793;26;19996;-80
2024/04/10 01:58:01;;;;;;;2.92;0.50;;;8.70;99.90;;;;;;5407708;26;20341;-81
2024/04/10 02:00:28;;;;;;;2.88;0.40;;;8.70;99.90;;;;;;5403700;26;20028;-81
2024/04/10 02:02:55;;;;;;;2.15;0.38;;;8.70;99.90;;;;;;5402567;26;20000;-80
2024/04/10 02:05:22;;;;;;;2.72;0.40;;;8.60;99.90;;;;;;5405623;26;20767;-81
2024/04/10 02:07:50;;;;;;;2.05;0.30;;;8.60;99.90;;;;;;5400209;26;20012;-80
2024/04/10 02:10:17;;;;;;;1.27;0.40;;;8.50;99.90;;;;;;5394815;26;20008;-79
2024/04/10 02:12:44;;;;;;;1.08;0.32;;;8.50;99.90;;;;;;5409957;26;20338;-79
2024/04/10 02:15:11;;;;;;;2.65;0.55;;;8.40;99.90;;;;;;5409895;26;20035;-80
2024/04/10 02:17:38;;;;;;;1.65;0.43;;;8.40;99.90;;;;;;5404419;26;20007;-79
2024/04/10 02:20:06;;;;;;;2.35;0.50;;;8.40;99.90;;;;;;5406101;26;20059;-79
2024/04/10 02:22:33;;;;;;;2.50;0.52;;;8.30;99.90;;;;;;5397652;26;20000;-80
2024/04/10 02:25:00;;;;;;;1.98;0.50;;;8.30;99.90;;;;;;5419961;26;20019;-79
2024/04/10 02:27:27;;;;;;;2.70;0.50;;;8.30;99.90;;;;;;5410718;26;20077;-79
2024/04/10 02:29:54;;;;;;;4.13;0.90;;;8.30;99.90;;;;;;5382095;26;20000;-79
2024/04/10 02:32:21;;;;;;;1.77;0.60;;;8.20;99.90;;;;;;5388017;26;20350;-80
2024/04/10 02:34:48;;;;;;;2.78;0.60;;;8.20;99.90;;;;;;5394349;26;20040;-80
2024/04/10 02:37:15;;;;;;;5.10;0.68;;;8.20;99.90;;;;;;5400570;26;20010;-80
2024/04/10 02:39:42;;;;;;;3.90;0.73;;;8.10;99.90;;;;;;5411951;26;20008;-80
2024/04/10 02:42:09;;;;;;;2.45;0.63;;;8.10;99.90;;;;;;5405697;26;20014;-80
2024/04/10 02:44:37;;;;;;;4.00;0.70;;;8.10;99.90;;;;;;5409437;26;20006;-79
2024/04/10 02:47:04;;;;;;;4.70;0.80;;;8.10;99.90;;;;;;5413719;26;20026;-80
2024/04/10 02:49:31;;;;;;;4.43;0.80;;;8.10;99.90;;;;;;5396107;26;20508;-80
2024/04/10 02:51:58;;;;;;;5.70;1.52;;;8.10;99.90;;;;;;5390037;26;20023;-78
2024/04/10 02:54:25;;;;;;;2.45;0.80;;;8.10;99.90;;;;;;5402428;26;20047;-79
2024/04/10 02:56:52;;;;;;;3.20;0.73;;;8.10;99.90;;;;;;5407552;26;20000;-79
2024/04/10 02:59:19;;;;;;;4.13;1.10;;;8.10;99.90;;;;;;5409660;26;20023;-78
2024/04/10 03:01:47;;;;;;;4.03;1.08;;;8.10;99.90;;;;;;5399511;26;20022;-79
2024/04/10 03:04:14;;;;;;;4.53;1.02;;;8.10;99.90;;;;;;5404783;26;20014;-79
2024/04/10 03:06:41;;;;;;;3.83;1.10;;;8.10;99.90;;;;;;5392090;26;20031;-79
2024/04/10 03:09:10;;;;;;;4.32;1.05;;;8.10;99.90;;;;;;5392170;26;20067;-79
2024/04/10 03:11:40;;;;;;;6.97;1.50;;;8.10;99.90;;;;;;5407615;26;20000;-79
2024/04/10 03:14:08;;;;;;;5.70;1.60;;;8.20;99.90;;;;;;5397124;26;20007;-79
2024/04/10 03:16:35;;;;;;;3.70;1.30;;;8.20;99.90;;;;;;5406844;26;20023;-79
2024/04/10 03:19:02;;;;;;;3.88;1.33;;;8.30;99.90;;;;;;5406781;26;20955;-79
2024/04/10 03:21:29;;;;;;;5.18;1.90;;;8.30;99.90;;;;;;5405620;26;20007;-79
2024/04/10 03:23:56;;;;;;;5.43;1.42;;;8.40;99.90;;;;;;5401216;26;20003;-79
2024/04/10 03:26:23;;;;;;;5.18;1.63;;;8.30;99.90;;;;;;5400864;26;20023;-79
2024/04/10 03:28:50;;;;;;;7.13;1.92;;;8.30;99.90;;;;;;5402418;26;20006;-79
2024/04/10 03:31:17;;;;;;;7.22;1.92;;;8.30;99.90;;;;;;5406551;26;20003;-79
2024/04/10 03:33:44;;;;;;;8.38;1.90;;;8.30;99.90;;;;;;5386381;26;20035;-79
2024/04/10 03:36:11;;;;;;;6.78;1.67;;;8.40;99.90;;;;;;5389791;26;19996;-78
2024/04/10 03:38:38;;;;;;;9.40;2.35;;;8.40;99.90;;;;;;5400734;26;20849;-78
2024/04/10 03:41:05;;;;;;;5.97;1.70;;;8.40;99.90;;;;;;5401714;26;20000;-79
2024/04/10 03:43:32;;;;;;;6.38;2.03;;;8.30;99.90;;;;;;5390481;26;20008;-79
2024/04/10 03:46:00;;;;;;;9.82;2.33;;;8.40;99.90;;;;;;5382498;26;20023;-79
2024/04/10 03:48:27;;;;;;;5.68;2.03;;;8.40;99.90;;;;;;5403187;26;19996;-79
2024/04/10 03:50:58;;;;;;;7.72;2.42;;;8.30;99.90;;;;;;5406366;26;20059;-79
2024/04/10 03:53:28;;;;;;;11.52;2.72;;;8.30;99.90;;;;;;5404184;26;20019;-79
2024/04/10 03:55:55;;;;;;;7.93;2.25;;;8.30;99.90;;;;;;5401942;26;20074;-79
2024/04/10 03:58:23;;;;;;;8.85;2.28;;;8.30;99.90;;;;;;5404078;26;21684;-79
2024/04/10 04:00:50;;;;;;;6.95;2.55;;;8.20;99.90;;;;;;5401180;26;20007;-79
2024/04/10 04:03:17;;;;;;;8.55;2.40;;;8.20;99.90;;;;;;5390322;26;20614;-80
2024/04/10 04:05:44;;;;;;;12.68;3.47;;;8.20;99.90;;;;;;5408840;26;20007;-79
2024/04/10 04:08:12;;;;;;;14.27;3.08;;;8.30;99.90;;;;;;5395663;26;20579;-79
2024/04/10 04:10:43;;;;;;;10.18;2.53;;;8.20;99.90;;;;;;5417777;26;20486;-79
2024/04/10 04:13:10;;;;;;;10.77;2.58;;;8.20;99.90;;;;;;5395951;26;20454;-79
2024/04/10 04:15:40;;;;;;;14.43;3.40;;;8.10;99.90;;;;;;5388514;26;20031;-79
2024/04/10 04:18:07;;;;;;;11.60;2.88;;;8.10;99.90;;;;;;5388089;26;20367;-79
2024/04/10 04:20:35;;;;;;;11.48;2.88;;;8.10;99.90;;;;;;5397362;26;20341;-80
2024/04/10 04:23:02;;;;;;;10.05;2.63;;;8.10;99.90;;;;;;5402783;26;20031;-80
2024/04/10 04:25:34;;;;;;;8.35;2.63;;;8.10;99.90;;;;;;5397924;26;20469;-79
2024/04/10 04:28:01;;;;;;;13.30;3.67;;;8.10;99.90;;;;;;5404470;26;19996;-79
2024/04/10 04:30:28;;;;;;;15.13;3.25;;;8.00;99.90;;;;;;5408549;26;20020;-79
2024/04/10 04:32:55;;;;;;;11.38;3.38;;;8.00;99.90;;;;;;5388975;26;20011;-79
2024/04/10 04:35:22;;;;;;;10.10;3.25;;;8.00;99.90;;;;;;5396157;26;20000;-79
2024/04/10 04:37:57;;;;;;;11.85;3.78;;;8.00;99.90;;;;;;5396463;26;20043;-79
2024/04/10 04:40:31;;;;;;;17.27;4.32;;;8.00;99.90;;;;;;5402912;26;20000;-79
2024/04/10 04:42:59;;;;;;;12.48;3.65;;;8.00;99.90;;;;;;5403775;26;20350;-78
2024/04/10 04:45:26;;;;;;;14.80;4.03;;;8.00;99.90;;;;;;5402092;26;20007;-79
2024/04/10 04:47:53;;;;;;;9.18;3.17;;;7.90;99.90;;;;;;5400144;26;20001;-80
2024/04/10 04:50:20;;;;;;;15.82;4.20;;;7.90;99.90;;;;;;5412252;26;20007;-79
2024/04/10 04:52:47;;;;;;;12.57;4.25;;;7.90;99.90;;;;;;5400424;26;20031;-79
2024/04/10 04:55:14;;;;;;;15.02;3.85;;;7.90;99.90;;;;;;5409999;26;19999;-79
2024/04/10 04:57:41;;;;;;;13.20;4.43;;;7.90;99.90;;;;;;5411915;26;20669;-79
2024/04/10 05:00:14;;;;;;;14.57;4.38;;;7.90;99.90;;;;;;5408747;26;20028;-80
2024/04/10 05:02:41;;;;;;;12.48;3.88;;;7.80;99.90;;;;;;5418503;26;20021;-79
2024/04/10 05:05:16;;;;;;;13.43;4.38;;;7.80;99.90;;;;;;5408117;26;19995;-80
2024/04/10 05:07:46;;;;;;;13.80;4.57;;;7.90;99.90;;;;;;5404148;26;20000;-79
2024/04/10 05:10:13;;;;;;;17.27;4.57;;;7.90;99.90;;;;;;5399161;26;20455;-80
2024/04/10 05:12:42;;;;;;;15.88;4.55;;;7.90;99.90;;;;;;5384277;26;20019;-79
2024/04/10 05:15:10;;;;;;;17.98;4.55;;;7.80;99.90;;;;;;5384498;26;20353;-79
2024/04/10 05:17:42;;;;;;;15.05;4.20;;;7.80;99.90;;;;;;5409748;26;20687;-80
2024/04/10 05:20:13;;;;;;;16.23;4.47;;;7.90;99.90;;;;;;5407538;26;20021;-80
2024/04/10 05:22:41;;;;;;;18.05;4.72;;;7.90;99.90;;;;;;5406035;26;20028;-81
2024/04/10 05:25:10;;;;;;;11.80;4.43;;;8.00;99.90;;;;;;5411897;26;20023;-80
2024/04/10 05:27:38;;;;;;;14.90;4.72;;;7.90;99.90;;;;;;5467077;26;20450;-80
2024/04/10 05:30:07;;;;;;;19.98;4.88;;;8.00;99.90;;;;;;5409277;26;20008;-80
2024/04/10 05:32:35;;;;;;;15.93;4.22;;;7.90;99.90;;;;;;5396691;26;20370;-80
2024/04/10 05:35:05;;;;;;;17.50;4.57;;;8.00;99.90;;;;;;5402271;26;20031;-81
2024/04/10 05:37:32;;;;;;;16.70;4.60;;;7.90;99.90;;;;;;5397075;26;20032;-80
2024/04/10 05:40:09;;;;;;;17.02;4.82;;;8.00;99.90;;;;;;5395391;26;20019;-80
2024/04/10 05:42:37;;;;;;;14.10;4.72;;;7.90;99.90;;;;;;5401089;26;20443;-80
2024/04/10 05:45:06;;;;;;;15.73;5.53;;;8.00;99.90;;;;;;5406437;26;19995;-80
2024/04/10 05:47:33;;;;;;;15.75;4.40;;;8.00;99.90;;;;;;5404352;26;20047;-80
2024/04/10 05:50:00;;;;;;;17.35;5.18;;;8.10;99.90;;;;;;5405184;26;20356;-80
2024/04/10 05:52:28;;;;;;;14.68;5.05;;;8.10;99.90;;;;;;5404634;26;20000;-80
2024/04/10 05:54:55;;;;;;;16.35;4.78;;;8.20;99.90;;;;;;5401441;26;20008;-80
2024/04/10 05:57:24;;;;;;;14.35;4.40;;;8.30;99.90;;;;;;5399821;26;20012;-80
2024/04/10 05:59:52;;;;;;;15.13;5.13;;;8.30;99.90;;;;;;5404397;26;20035;-80
2024/04/10 06:02:23;;;;;;;13.50;4.22;;;8.40;99.90;;;;;;5406405;26;20000;-80
2024/04/10 06:04:57;;;;;;;14.57;4.68;;;8.40;99.90;;;;;;5343948;26;20003;-80
2024/04/10 06:07:24;;;;;;;15.15;4.78;;;8.50;99.90;;;;;;5406189;26;20035;-80
2024/04/10 06:09:52;;;;;;;17.30;5.03;;;8.50;99.90;;;;;;5401974;26;20009;-80
2024/04/10 06:12:19;;;;;;;12.75;4.32;;;8.50;99.90;;;;;;5396475;26;20464;-80
2024/04/10 06:14:55;;;;;;;22.33;6.03;;;8.60;99.90;;;;;;5403594;26;20008;-80
2024/04/10 06:17:24;;;;;;;14.10;5.10;;;8.60;99.90;;;;;;5404980;26;20350;-80
2024/04/10 06:19:54;;;;;;;19.85;4.95;;;8.70;99.90;;;;;;5429050;26;20381;-81
2024/04/10 06:22:21;;;;;;;18.08;5.68;;;8.70;99.90;;;;;;5402350;26;19999;-80
2024/04/10 06:24:48;;;;;;;17.50;4.90;;;8.80;99.90;;;;;;5404327;26;19999;-80
2024/04/10 06:27:15;;;;;;;17.55;5.15;;;8.90;99.90;;;;;;5401286;26;20100;-80
2024/04/10 06:29:45;;;;;;;19.40;5.32;;;8.90;99.90;;;;;;5403008;26;20339;-80
2024/04/10 06:32:15;;;;;;;16.95;5.68;;;9.10;99.90;;;;;;5397039;26;20332;-80
2024/04/10 06:34:42;;;;;;;18.88;6.63;;;9.10;99.90;;;;;;5403063;26;20000;-80
2024/04/10 06:37:09;;;;;;;18.13;5.32;;;9.20;99.90;;;;;;5401585;26;20461;-80
2024/04/10 06:39:36;;;;;;;25.90;6.75;;;9.30;99.90;;;;;;5405232;26;20010;-80
2024/04/10 06:42:06;;;;;;;16.50;5.72;;;9.30;99.90;;;;;;5398770;26;20008;-80
2024/04/10 06:44:33;;;;;;;23.60;5.72;;;9.40;99.90;;;;;;5399507;26;20335;-80
2024/04/10 06:47:00;;;;;;;17.88;5.43;;;9.50;99.90;;;;;;5399995;26;20010;-80
2024/04/10 06:49:28;;;;;;;15.32;5.63;;;9.50;99.90;;;;;;5400550;26;20004;-80
2024/04/10 06:51:56;;;;;;;18.35;5.40;;;9.60;99.90;;;;;;5399801;26;20005;-80
2024/04/10 06:54:23;;;;;;;14.63;5.30;;;9.70;99.90;;;;;;5402862;26;20007;-79
2024/04/10 06:56:50;;;;;;;17.33;6.22;;;9.80;99.90;;;;;;5400844;26;20739;-80
2024/04/10 06:59:18;;;;;;;13.95;5.50;;;9.80;99.90;;;;;;5404918;26;20006;-80
2024/04/10 07:01:45;;;;;;;17.30;5.90;;;9.90;99.90;;;;;;5405304;26;20450;-80
2024/04/10 07:04:12;;;;;;;15.10;5.43;;;10.00;99.90;;;;;;5399635;26;20007;-80
2024/04/10 07:06:39;;;;;;;15.07;6.18;;;10.10;99.90;;;;;;5403580;26;20009;-80
2024/04/10 07:09:08;;;;;;;15.85;5.60;;;10.20;99.90;;;;;;5400389;26;20003;-79
2024/04/10 07:11:36;;;;;;;18.17;6.60;;;10.30;99.90;;;;;;5396902;26;20022;-80
2024/04/10 07:14:03;;;;;;;15.48;5.18;;;10.40;99.90;;;;;;5396603;26;20021;-80
2024/04/10 07:16:32;;;;;;;23.33;6.55;;;10.50;99.90;;;;;;5407382;26;20492;-80
2024/04/10 07:18:59;;;;;;;17.73;6.05;;;10.60;99.90;;;;;;5403699;26;20349;-80
2024/04/10 07:21:26;;;;;;;18.98;5.30;;;10.70;99.90;;;;;;5405471;26;20021;-80
2024/04/10 07:23:53;;;;;;;16.27;5.95;;;10.80;99.90;;;;;;5404635;26;20792;-79
2024/04/10 07:26:22;;;;;;;21.10;5.57;;;10.90;99.90;;;;;;5406231;26;20420;-80
2024/04/10 07:28:52;;;;;;;15.23;5.78;;;11.00;99.90;;;;;;5397312;26;19995;-80
2024/04/10 07:31:20;;;;;;;;;;;11.10;99.90;;;;;;5400366;26;20007;-80
2024/04/10 07:33:53;;;;;;;17.85;5.90;;;11.20;99.90;;;;;;5403038;26;19984;-79
2024/04/10 07:36:21;;;;;;;15.75;5.63;;;11.30;99.90;;;;;;5403950;26;20009;-79
2024/04/10 07:38:52;;;;;;;12.85;5.40;;;11.40;99.90;;;;;;5400097;26;20344;-80
2024/04/10 07:41:19;;;;;;;13.43;4.72;;;11.50;99.90;;;;;;5399019;26;20040;-79
2024/04/10 07:43:46;;;;;;;13.93;5.18;;;11.60;99.90;;;;;;5406718;26;20000;-80
2024/04/10 07:46:15;;;;;;;13.65;4.93;;;11.60;99.90;;;;;;5390923;26;20007;-79
2024/04/10 07:48:47;;;;;;;14.93;4.78;;;11.70;99.90;;;;;;5398430;26;19995;-79
2024/04/10 07:51:15;;;;;;;15.45;4.32;;;11.70;99.90;;;;;;5404843;26;20039;-80
2024/04/10 07:53:43;;;;;;;14.38;5.15;;;11.80;99.90;;;;;;5404475;26;20021;-79
2024/04/10 07:56:14;;;;;;;12.20;4.07;;;12.00;99.90;;;;;;5399467;26;20446;-79
2024/04/10 07:58:42;;;;;;;14.70;4.63;;;12.10;99.90;;;;;;5404722;26;20032;-79
2024/04/10 08:01:13;;;;;;;14.40;5.35;;;12.20;99.90;;;;;;5401417;26;20490;-80
2024/04/10 08:03:40;;;;;;;15.20;5.35;;;12.20;99.90;;;;;;5396716;26;20004;-79
2024/04/10 08:06:09;;;;;;;13.07;4.82;;;12.10;99.90;;;;;;5404855;26;20000;-79
2024/04/10 08:08:36;;;;;;;17.77;5.10;;;11.90;99.90;;;;;;5395424;26;20514;-79
2024/04/10 08:11:11;;;;;;;10.80;4.28;;;11.80;99.90;;;;;;5403650;26;19999;-79
2024/04/10 08:13:40;;;;;;;14.52;5.32;;;11.70;99.90;;;;;;5397021;26;20424;-79
2024/04/10 08:16:11;;;;;;;14.20;5.15;;;11.60;99.90;;;;;;5401711;26;20022;-80
2024/04/10 08:18:41;;;;;;;16.35;5.50;;;11.50;99.90;;;;;;5404184;26;20028;-79
2024/04/10 08:21:09;;;;;;;12.63;5.63;;;11.50;99.90;;;;;;5401643;26;19999;-79
2024/04/10 08:23:38;;;;;;;16.77;5.85;;;11.40;99.90;;;;;;5398609;26;20015;-79
2024/04/10 08:26:20;;;;;;;16.08;5.15;;;11.40;99.90;;;;;;5405456;26;20411;-79
2024/04/10 08:28:49;;;;;;;14.70;6.05;;;11.40;99.90;;;;;;5395223;26;20078;-79
2024/04/10 08:31:18;;;;;;;18.02;6.38;;;11.30;99.90;;;;;;5403331;26;20028;-79
2024/04/10 08:33:46;;;;;;;18.67;6.70;;;11.30;99.90;;;;;;5398365;26;20003;-79
2024/04/10 08:36:14;;;;;;;14.75;6.35;;;11.40;99.90;;;;;;5402884;26;20011;-80
2024/04/10 08:40:15;;;;;;;16.08;5.15;;;11.70;99.90;;;;;;5491202;25;20335;-80
2024/04/10 08:42:48;;;;;;;14.02;5.18;;;12.00;99.90;;;;;;5495529;25;20492;-81
2024/04/10 08:45:19;;;;;;;14.27;4.88;;;12.10;99.90;;;;;;5452262;25;20579;-79
2024/04/10 08:47:48;;;;;;;12.77;4.57;;;12.10;99.90;;;;;;5457236;26;20367;-80
2024/04/10 08:50:16;;;;;;;14.93;5.07;;;12.00;99.90;;;;;;5461688;25;21033;-81
2024/04/10 08:52:44;;;;;;;13.52;5.72;;;11.90;99.90;;;;;;5488915;25;20002;-79
2024/04/10 08:55:12;;;;;;;16.60;6.20;;;11.90;99.90;;;;;;5494905;25;20008;-80
2024/04/10 08:57:39;;;;;;;13.18;5.93;;;12.00;99.90;;;;;;5462790;26;20905;-79
2024/04/10 09:00:07;;;;;;;17.23;5.47;;;12.20;99.90;;;;;;5459879;26;20347;-80
2024/04/10 09:02:37;;;;;;;13.75;5.05;;;12.50;99.90;;;;;;5495861;25;20031;-77
2024/04/10 09:05:05;;;;;;;13.82;4.60;;;12.70;99.90;;;;;;5463463;26;20004;-79
2024/04/10 09:07:32;;;;;;;15.40;5.60;;;13.00;99.90;;;;;;5463551;26;20367;-78
2024/04/10 09:10:09;;;;;;;11.90;4.30;;;13.10;99.90;;;;;;5488556;25;20002;-78
2024/04/10 09:12:36;;;;;;;11.48;5.03;;;13.10;99.90;;;;;;5465069;25;19998;-78
2024/04/10 09:15:11;;;;;;;12.02;4.22;;;13.00;99.90;;;;;;5492640;25;20033;-78
2024/04/10 09:17:39;;;;;;;14.63;4.20;;;13.00;99.90;;;;;;5488665;25;20013;-78
2024/04/10 09:20:13;;;;;;;12.13;4.25;;;13.10;99.90;;;;;;5494481;25;20008;-78
2024/04/10 09:22:40;;;;;;;11.95;4.55;;;13.10;99.90;;;;;;5461755;26;20594;-78
2024/04/10 09:25:11;;;;;;;13.98;4.95;;;13.10;99.90;;;;;;5456488;25;20020;-78
2024/04/10 09:27:39;;;;;;;10.10;4.00;;;13.10;99.90;;;;;;5459202;25;19998;-78
2024/04/10 09:30:09;;;;;;;12.02;4.28;;;13.20;99.90;;;;;;5491850;25;20026;-79
2024/04/10 09:32:36;;;;;;;11.05;4.25;;;13.30;99.90;;;;;;5463366;25;20329;-78
2024/04/10 09:35:05;;;;;;;14.15;3.90;;;13.30;99.90;;;;;;5491909;25;20038;-78
2024/04/10 09:37:34;;;;;;;13.82;4.45;;;13.50;99.90;;;;;;5496017;25;20008;-79
2024/04/10 09:40:02;;;;;;;11.38;4.22;;;13.70;99.90;;;;;;5461871;25;20337;-79
2024/04/10 09:42:32;;;;;;;12.25;4.70;;;13.80;99.90;;;;;;5462284;26;19994;-79
2024/04/10 09:45:06;;;;;;;13.15;3.58;;;13.90;99.90;;;;;;5490346;25;20034;-78
2024/04/10 09:47:35;;;;;;;13.38;3.95;;;14.00;99.90;;;;;;5460119;25;20353;-79
2024/04/10 09:50:07;;;;;;;13.90;3.83;;;14.10;99.90;;;;;;5483896;25;20008;-79
2024/04/10 09:52:34;;;;;;;12.55;3.35;;;14.20;99.90;;;;;;5445448;26;20239;-79
2024/04/10 09:55:02;;;;;;;13.93;4.55;;;14.40;99.90;;;;;;5446110;26;19998;-79
2024/04/10 09:57:30;;;;;;;11.93;3.08;;;14.60;99.90;;;;;;5445143;26;20009;-78
2024/04/10 09:59:57;;;;;;;12.77;3.42;;;14.70;99.90;;;;;;5473796;26;19994;-79
2024/04/10 10:02:24;;;;;;;13.05;4.50;;;14.70;99.90;;;;;;5477183;26;20020;-80
2024/04/10 10:04:51;;;;;;;11.00;3.70;;;14.50;99.90;;;;;;5439484;26;20005;-82
2024/04/10 10:07:22;;;;;;;13.65;3.83;;;14.40;99.90;;;;;;5445120;26;19998;-79
2024/04/10 10:09:50;;;;;;;11.75;3.80;;;14.30;99.90;;;;;;5442718;26;20005;-79
2024/04/10 10:12:27;;;;;;;10.80;3.72;;;14.20;99.90;;;;;;5438526;26;20016;-78
2024/04/10 10:15:05;;;;;;;11.13;4.05;;;13.90;99.90;;;;;;5413449;26;19998;-79
2024/04/10 10:17:32;;;;;;;12.88;3.80;;;13.80;99.90;;;;;;5448944;26;20013;-78
2024/04/10 10:19:59;;;;;;;11.25;4.35;;;13.60;99.90;;;;;;5475274;26;20002;-77
2024/04/10 10:22:26;;;;;;;15.77;3.47;;;13.70;99.90;;;;;;5472026;26;20006;-77
2024/04/10 10:24:58;;;;;;;11.07;4.18;;;13.80;99.90;;;;;;5476217;26;20006;-78
2024/04/10 10:27:25;;;;;;;11.55;3.85;;;13.80;99.90;;;;;;5444182;26;20474;-80
2024/04/10 10:30:09;;;;;;;10.18;3.85;;;13.70;99.90;;;;;;5445660;26;20095;-77
2024/04/10 10:32:36;;;;;;;11.50;3.63;;;13.60;99.90;;;;;;5472945;26;20012;-78
2024/04/10 10:35:09;;;;;;;11.98;3.88;;;13.50;99.90;;;;;;5446363;26;20012;-78
2024/04/10 10:37:36;;;;;;;12.07;3.80;;;13.40;99.90;;;;;;5435595;26;20563;-77
2024/04/10 10:40:07;;;;;;;9.10;3.10;;;13.40;99.90;;;;;;5458231;26;20017;-79
2024/04/10 10:42:34;;;;;;;8.82;3.17;;;13.50;99.90;;;;;;5443454;26;20021;-78
2024/04/10 10:45:08;;;;;;;9.43;3.20;;;13.50;99.90;;;;;;5440440;26;20017;-78
2024/04/10 10:47:39;;;;;;;9.38;3.03;;;13.40;99.90;;;;;;5432583;26;20038;-78
2024/04/10 10:50:06;;;;;;;10.10;3.40;;;13.60;99.90;;;;;;5433594;26;20011;-78
2024/04/10 10:52:40;;;;;;;8.55;3.10;;;13.70;99.90;;;;;;5480168;26;20369;-78
2024/04/10 10:55:14;;;;;;;10.50;3.25;;;13.90;99.90;;;;;;5434123;26;20009;-77
2024/04/10 10:57:41;;;;;;;9.40;3.13;;;13.90;99.90;;;;;;5470423;26;20035;-78
2024/04/10 11:00:16;;;;;;;11.38;3.60;;;13.80;99.90;;;;;;5465815;26;20005;-79
2024/04/10 11:02:44;;;;;;;7.40;2.72;;;13.70;99.90;;;;;;5452615;26;20035;-78
2024/04/10 11:05:13;;;;;;;9.65;3.15;;;13.80;99.90;;;;;;5422706;26;20009;-80
2024/04/10 11:07:41;;;;;;;9.07;3.13;;;13.70;99.90;;;;;;5468968;26;20393;-78
2024/04/10 11:10:13;;;;;;;9.98;3.15;;;13.80;99.90;;;;;;5467985;26;20516;-78
2024/04/10 11:12:40;;;;;;;10.05;3.33;;;13.90;99.90;;;;;;5429457;26;20003;-78
2024/04/10 11:15:10;;;;;;;10.18;3.47;;;13.90;99.90;;;;;;5439899;26;20009;-78
2024/04/10 11:17:37;;;;;;;10.27;2.55;;;13.90;99.90;;;;;;5459254;26;20026;-79
2024/04/10 11:20:10;;;;;;;10.13;3.03;;;13.90;99.90;;;;;;5448737;26;20585;-78
2024/04/10 11:22:38;;;;;;;6.93;3.00;;;13.90;99.90;;;;;;5438526;26;19998;-79
2024/04/10 11:25:05;;;;;;;9.63;2.90;;;14.10;99.90;;;;;;5438644;26;20003;-80
2024/04/10 11:27:33;;;;;;;9.48;3.22;;;14.40;99.90;;;;;;5477467;26;20121;-77
2024/04/10 11:30:00;;;;;;;9.68;2.70;;;14.40;99.90;;;;;;5479405;26;20029;-79
2024/04/10 11:32:27;;;;;;;11.68;2.85;;;14.40;99.90;;;;;;5465284;26;20039;-78
2024/04/10 11:34:55;;;;;;;9.73;2.92;;;14.40;99.90;;;;;;5464110;26;20345;-80
2024/04/10 11:37:25;;;;;;;7.53;2.70;;;14.60;99.90;;;;;;5467369;26;20355;-80
2024/04/10 11:39:53;;;;;;;7.93;2.97;;;15.00;99.90;;;;;;5443971;26;19999;-79
2024/04/10 11:42:21;;;;;;;7.10;2.08;;;15.20;99.90;;;;;;5489315;26;20037;-78
2024/04/10 11:44:49;;;;;;;14.25;3.42;;;15.40;99.90;;;;;;5444215;26;20013;-79
2024/04/10 11:47:20;;;;;;;11.10;3.45;;;15.60;99.90;;;;;;5465957;26;20050;-80
2024/04/10 11:49:47;;;;;;;8.38;2.63;;;15.60;99.90;;;;;;5430739;26;20001;-79
2024/04/10 11:52:14;;;;;;;9.63;3.38;;;15.60;99.90;;;;;;5429504;26;20030;-80
2024/04/10 11:54:41;;;;;;;10.25;3.03;;;15.60;99.90;;;;;;5473325;26;20034;-78
2024/04/10 11:57:08;;;;;;;8.98;3.47;;;15.30;99.90;;;;;;5432029;26;20026;-79
2024/04/10 11:59:36;;;;;;;11.57;3.10;;;15.20;99.90;;;;;;5484436;26;20395;-79
2024/04/10 12:02:03;;;;;;;7.93;3.13;;;15.20;99.90;;;;;;5437328;26;19999;-79
2024/04/10 12:04:33;;;;;;;12.80;3.47;;;15.30;99.90;;;;;;5439674;26;19998;-79
2024/04/10 12:07:01;;;;;;;;;;;15.40;99.90;;;;;;5459944;26;20030;-80
2024/04/10 12:09:28;;;;;;;8.57;2.97;;;15.40;99.90;;;;;;5463440;26;19924;-78
2024/04/10 12:11:55;;;;;;;9.77;3.53;;;15.30;99.90;;;;;;5444401;26;20501;-77
2024/04/10 12:14:22;;;;;;;9.45;3.05;;;15.20;99.90;;;;;;5451223;26;19998;-78
2024/04/10 12:16:49;;;;;;;9.45;3.22;;;15.20;99.90;;;;;;5477929;26;20034;-78
2024/04/10 12:19:16;;;;;;;8.68;3.03;;;15.20;99.90;;;;;;5446294;26;20746;-79
2024/04/10 12:21:44;;;;;;;7.60;3.00;;;15.40;99.90;;;;;;5436987;26;20464;-79
2024/04/10 12:24:11;;;;;;;7.57;2.75;;;15.60;99.90;;;;;;5431808;26;20038;-79
2024/04/10 12:26:38;;;;;;;8.82;2.60;;;15.90;99.90;;;;;;5453248;26;20069;-80
2024/04/10 12:29:05;;;;;;;8.00;3.08;;;15.90;99.90;;;;;;5449542;26;19994;-78
2024/04/10 12:31:32;;;;;;;9.85;2.88;;;16.00;99.70;;;;;;5472852;26;20051;-79
2024/04/10 12:33:59;;;;;;;8.98;2.70;;;16.10;99.70;;;;;;5453032;26;20051;-79
2024/04/10 12:39:11;;;;;;;9.85;2.95;;;16.10;98.50;;;;;;5470483;26;20062;-78
2024/04/10 12:41:40;;;;;;;7.75;3.10;;;15.90;98.20;;;;;;5465016;26;19998;-78
2024/04/10 12:44:18;;;;;;;7.63;3.30;;;15.70;98.70;;;;;;5408707;26;20005;-78
2024/04/10 12:46:54;;;;;;;9.32;3.33;;;15.40;98.70;;;;;;5466109;26;20005;-79
2024/04/10 12:49:23;;;;;;;9.57;3.53;;;15.30;99.90;;;;;;5435714;26;20384;-79
2024/04/10 12:51:51;;;;;;;10.85;3.78;;;15.30;99.90;;;;;;5442265;26;20348;-78
2024/04/10 12:54:21;;;;;;;9.30;3.03;;;15.50;99.90;;;;;;5424261;26;19998;-77
2024/04/10 12:56:48;;;;;;;10.07;2.92;;;15.70;99.90;;;;;;5383934;26;19998;-78
2024/04/10 12:59:15;;;;;;;9.38;3.10;;;15.80;99.90;;;;;;5449003;26;19998;-77